Time;durP1;ratioP1;P1;durP2;ratioP2;P2;SDS_P1;SDS_P2;PMS_P1;PMS_P2;Temp;Humidity;BMP_temperature;BMP_pressure;BME280_temperature;BME280_humidity;BME280_pressure;Samples;Min_cycle;Max_cycle;Signal;HPM_P1;HPM_P2
2022/08/30 00:01:01;;;;;;;10.10;6.03;;;;;;;19.48;65.53;96952.56;4898071;29;20052;-81
2022/08/30 00:02:01;;;;;;;7.25;5.53;;;;;;;19.46;64.99;96956.44;4897785;29;20064;-82
2022/08/30 00:04:29;;;;;;;9.85;5.22;;;;;;;19.44;70.57;96951.41;4897569;29;20049;-82
2022/08/30 00:06:58;;;;;;;9.52;5.38;;;;;;;19.39;65.34;96948.63;4897776;29;20112;-82
2022/08/30 00:09:27;;;;;;;6.28;5.10;;;;;;;19.31;64.39;96952.41;4897498;29;20048;-82
2022/08/30 00:11:56;;;;;;;7.85;4.95;;;;;;;19.29;64.23;96956.31;4901298;29;20060;-82
2022/08/30 00:14:26;;;;;;;7.25;4.93;;;;;;;19.24;64.20;96950.91;4904673;29;20052;-82
2022/08/30 00:16:55;;;;;;;7.20;5.63;;;;;;;19.22;64.15;96953.78;4907469;29;20045;-82
2022/08/30 00:19:23;;;;;;;12.15;5.97;;;;;;;19.17;63.97;96951.00;4909012;29;20064;-82
2022/08/30 00:21:52;;;;;;;6.38;4.75;;;;;;;19.16;64.28;96949.41;4907712;29;20060;-81
2022/08/30 00:24:20;;;;;;;5.47;4.95;;;;;;;19.16;64.84;96952.06;4902731;29;20053;-82
2022/08/30 00:26:50;;;;;;;6.60;5.35;;;;;;;19.21;72.11;96962.75;4901267;29;20112;-81
2022/08/30 00:29:18;;;;;;;7.82;5.10;;;;;;;19.21;68.64;96962.75;4901123;29;20052;-81
2022/08/30 00:31:47;;;;;;;6.93;5.70;;;;;;;19.20;67.58;96955.84;4900957;29;20053;-82
2022/08/30 00:34:15;;;;;;;7.30;5.60;;;;;;;19.19;68.36;96967.44;4901036;29;20503;-83
2022/08/30 00:36:44;;;;;;;6.25;5.65;;;;;;;19.22;69.16;96953.78;4901010;29;20052;-82
2022/08/30 00:39:12;;;;;;;8.32;6.13;;;;;;;19.22;69.80;96956.44;4900719;29;20495;-82
2022/08/30 00:41:40;;;;;;;8.40;5.93;;;;;;;19.20;70.56;96950.56;4900810;29;20052;-82
2022/08/30 00:44:11;;;;;;;7.65;5.85;;;;;;;19.18;74.29;96952.63;4900812;29;20053;-81
2022/08/30 00:46:39;;;;;;;7.20;5.88;;;;;;;19.14;71.94;96946.19;4900500;29;20048;-82
2022/08/30 00:49:11;;;;;;;6.82;5.75;;;;;;;19.08;71.16;96950.53;4900675;29;20061;-82
2022/08/30 00:51:40;;;;;;;9.45;5.50;;;;;;;18.99;66.95;96945.81;4900485;29;20053;-82
2022/08/30 00:54:10;;;;;;;8.32;5.80;;;;;;;18.97;71.49;96942.59;4900419;29;20111;-82
2022/08/30 00:56:38;;;;;;;6.70;6.03;;;;;;;18.97;71.49;96943.38;4900391;29;20075;-82
2022/08/30 00:59:07;;;;;;;5.75;5.25;;;;;;;19.03;74.06;96944.31;4900206;29;20056;-82
2022/08/30 01:01:38;;;;;;;7.10;5.93;;;;;;;18.99;71.57;96932.59;4900319;29;20061;-81
2022/08/30 01:04:08;;;;;;;8.50;5.57;;;;;;;18.91;67.86;96941.63;4900274;29;20088;-82
2022/08/30 01:06:38;;;;;;;8.30;6.03;;;;;;;18.91;72.66;96937.19;4900775;29;20068;-82
2022/08/30 01:09:09;;;;;;;6.65;5.93;;;;;;;18.98;73.96;96941.53;4901588;29;20063;-82
2022/08/30 01:11:38;;;;;;;7.22;5.97;;;;;;;18.99;72.74;96940.53;4901429;29;20415;-82
2022/08/30 01:14:07;;;;;;;9.55;7.43;;;;;;;19.06;76.88;96936.72;4900387;29;20100;-81
2022/08/30 01:16:40;;;;;;;11.60;8.05;;;;;;;19.07;76.92;96934.91;4900387;29;20131;-82
2022/08/30 01:19:16;;;;;;;9.70;7.82;;;;;;;19.08;80.62;96931.22;4900233;29;20100;-82
2022/08/30 01:21:48;;;;;;;9.70;7.90;;;;;;;19.10;81.42;96937.09;4899814;29;20057;-82
2022/08/30 01:24:19;;;;;;;9.82;6.60;;;;;;;19.03;79.18;96933.75;4900095;29;20091;-81
2022/08/30 01:26:47;;;;;;;9.80;7.35;;;;;;;19.03;80.70;96931.09;4899351;29;20071;-82
2022/08/30 01:29:22;;;;;;;8.82;6.85;;;;;;;18.94;76.04;96934.06;4900378;29;20068;-82
2022/08/30 01:31:50;;;;;;;11.27;7.65;;;;;;;18.92;78.13;96944.06;4899951;29;20060;-82
2022/08/30 01:34:19;;;;;;;8.93;6.93;;;;;;;18.93;78.60;96950.97;4900298;29;20140;-82
2022/08/30 01:36:49;;;;;;;9.32;6.93;;;;;;;18.82;72.93;96948.28;4899695;29;20065;-81
2022/08/30 01:39:19;;;;;;;9.85;7.25;;;;;;;18.76;74.72;96952.63;4899933;29;20087;-82
2022/08/30 01:41:47;;;;;;;10.60;6.90;;;;;;;18.74;74.89;96944.13;4899477;29;20131;-82
2022/08/30 01:44:16;;;;;;;9.73;7.47;;;;;;;18.74;75.07;96944.13;4899577;29;20083;-82
2022/08/30 01:46:47;;;;;;;9.48;6.85;;;;;;;18.64;70.37;96946.47;4899172;29;20052;-81
2022/08/30 01:49:18;;;;;;;7.95;6.07;;;;;;;18.56;69.17;96944.94;4899718;29;20139;-82
2022/08/30 01:51:54;;;;;;;8.07;5.38;;;;;;;18.48;68.41;96942.63;4899211;29;20476;-82
2022/08/30 01:54:29;;;;;;;7.15;5.00;;;;;;;18.41;68.10;96942.72;4899427;29;20060;-82
2022/08/30 01:57:05;;;;;;;7.88;5.20;;;;;;;18.37;68.14;96952.13;4918226;29;20054;-81
2022/08/30 01:59:33;;;;;;;5.53;4.72;;;;;;;18.31;67.73;96945.88;4917875;29;20071;-83
2022/08/30 02:02:01;;;;;;;7.82;4.68;;;;;;;18.26;67.30;96945.75;4918133;29;20048;-81
2022/08/30 02:04:30;;;;;;;5.75;4.97;;;;;;;18.22;67.37;96946.41;4917829;29;20060;-81
2022/08/30 02:06:58;;;;;;;7.32;5.22;;;;;;;18.20;67.26;96945.84;4917955;29;20055;-81
2022/08/30 02:09:26;;;;;;;8.50;5.43;;;;;;;18.22;67.26;96949.84;4917691;29;20107;-82
2022/08/30 02:11:56;;;;;;;7.57;5.72;;;;;;;18.22;68.26;96949.84;4918023;29;20455;-81
2022/08/30 02:14:24;;;;;;;9.88;6.20;;;;;;;18.23;71.54;96951.47;4917726;29;20068;-82
2022/08/30 02:16:53;;;;;;;7.65;5.65;;;;;;;18.27;73.56;96946.53;4917737;29;20052;-82
2022/08/30 02:19:21;;;;;;;7.03;5.28;;;;;;;18.29;74.34;96947.94;4917386;29;20044;-82
2022/08/30 02:21:49;;;;;;;7.75;6.03;;;;;;;18.28;70.61;96942.91;4917398;29;20056;-81
2022/08/30 02:24:18;;;;;;;8.27;6.68;;;;;;;18.28;72.20;96948.19;4917639;29;20103;-82
2022/08/30 02:26:46;;;;;;;9.43;6.45;;;;;;;18.32;75.10;96954.59;4917680;29;20511;-82
2022/08/30 02:29:16;;;;;;;7.10;6.38;;;;;;;18.27;69.95;96947.34;4917463;29;20048;-81
2022/08/30 02:31:44;;;;;;;6.97;5.53;;;;;;;18.20;70.53;96940.56;4917566;29;20052;-82
2022/08/30 02:34:12;;;;;;;7.25;5.70;;;;;;;18.17;69.09;96946.25;4917338;29;20052;-82
2022/08/30 02:36:41;;;;;;;8.40;6.15;;;;;;;18.09;68.04;96947.38;4917238;29;20116;-82
2022/08/30 02:39:10;;;;;;;7.53;6.22;;;;;;;18.03;68.05;96941.13;4917083;29;20049;-81
2022/08/30 02:41:39;;;;;;;11.38;5.97;;;;;;;18.00;68.45;96952.13;4916996;29;20056;-81
2022/08/30 02:44:08;;;;;;;7.65;6.85;;;;;;;18.09;76.48;96953.44;4917346;29;20056;-81
2022/08/30 02:46:38;;;;;;;7.55;6.35;;;;;;;18.11;70.93;96953.25;4917025;29;20124;-82
2022/08/30 02:49:08;;;;;;;8.15;6.97;;;;;;;18.16;76.50;96949.94;4918452;29;20125;-84
2022/08/30 02:51:56;;;;;;;7.72;6.40;;;;;;;18.16;74.67;96952.56;4918950;29;20096;-82
2022/08/30 02:54:24;;;;;;;10.00;6.65;;;;;;;18.08;70.20;96946.56;4919337;29;20044;-82
2022/08/30 02:56:53;;;;;;;12.13;6.35;;;;;;;17.99;68.99;96945.22;4918989;29;20037;-84
2022/08/30 02:59:21;;;;;;;7.78;6.07;;;;;;;17.97;71.04;96941.22;4921014;29;20044;-83
2022/08/30 03:01:50;;;;;;;7.80;6.50;;;;;;;17.93;68.39;96940.84;4913367;29;20056;-81
2022/08/30 03:04:18;;;;;;;7.80;5.60;;;;;;;17.87;67.75;96926.69;4902847;29;20052;-81
2022/08/30 03:06:53;;;;;;;7.22;4.93;;;;;;;17.85;68.04;96925.31;4898944;29;20060;-81
2022/08/30 03:09:23;;;;;;;6.22;5.15;;;;;;;17.84;68.00;96923.69;4898712;29;20500;-81
2022/08/30 03:11:51;;;;;;;6.65;4.90;;;;;;;17.82;67.19;96917.81;4898016;29;20052;-82
2022/08/30 03:14:19;;;;;;;5.82;4.80;;;;;;;17.77;66.94;96922.91;4898332;29;20126;-82
2022/08/30 03:16:47;;;;;;;6.75;5.07;;;;;;;17.74;66.99;96918.91;4898306;29;20068;-81
2022/08/30 03:19:17;;;;;;;7.30;5.53;;;;;;;17.78;71.60;96922.72;4898100;29;20056;-81
2022/08/30 03:21:45;;;;;;;6.97;6.28;;;;;;;17.92;76.62;96920.75;4898145;29;20104;-82
2022/08/30 03:24:13;;;;;;;6.63;5.90;;;;;;;18.04;78.15;96924.28;4898606;29;20063;-82
2022/08/30 03:26:41;;;;;;;8.05;6.30;;;;;;;18.10;77.47;96919.94;4899373;29;20048;-81
2022/08/30 03:29:13;;;;;;;7.68;4.93;;;;;;;18.08;74.31;96925.47;4899540;29;20049;-81
2022/08/30 03:31:41;;;;;;;7.43;5.22;;;;;;;18.03;73.02;96927.94;4898660;29;20048;-81
2022/08/30 03:34:21;;;;;;;7.05;6.35;;;;;;;18.07;77.85;96928.31;4898908;29;20134;-81
2022/08/30 03:36:50;;;;;;;7.75;5.45;;;;;;;18.07;73.64;96926.47;4902380;29;20048;-82
2022/08/30 03:39:17;;;;;;;7.28;6.57;;;;;;;18.06;76.21;96929.31;4900353;29;20076;-80
2022/08/30 03:41:45;;;;;;;8.48;6.03;;;;;;;18.01;72.64;96922.06;4897653;29;20076;-81
2022/08/30 03:44:13;;;;;;;6.93;5.82;;;;;;;17.96;72.19;96921.94;4897640;29;20052;-83
2022/08/30 03:46:42;;;;;;;7.45;6.20;;;;;;;17.90;70.06;96922.81;4897185;29;20586;-81
2022/08/30 03:49:10;;;;;;;9.90;5.63;;;;;;;17.87;69.56;96924.06;4898162;29;20112;-81
2022/08/30 03:51:39;;;;;;;8.18;6.18;;;;;;;17.83;68.58;96919.44;4901208;29;20075;-81
2022/08/30 03:54:06;;;;;;;8.57;6.95;;;;;;;17.76;68.67;96908.94;4901496;29;20140;-81
2022/08/30 04:07:17;;;;;;;8.77;7.30;;;;;;;17.89;74.88;96921.22;4947599;23;20067;-80
2022/08/30 04:09:46;;;;;;;9.27;7.68;;;;;;;17.85;74.05;96923.47;4903810;29;20071;-80
2022/08/30 04:12:15;;;;;;;10.63;7.57;;;;;;;17.81;71.68;96926.75;4903594;29;20479;-80
2022/08/30 04:14:50;;;;;;;10.00;7.93;;;;;;;17.77;73.00;96922.91;4903402;29;20056;-80
2022/08/30 04:17:19;;;;;;;11.25;9.40;;;;;;;17.85;77.92;96928.75;4903732;29;20087;-81
2022/08/30 04:19:47;;;;;;;10.52;7.60;;;;;;;17.90;79.20;96933.38;4903427;29;20108;-80
2022/08/30 04:22:17;;;;;;;8.38;7.55;;;;;;;17.80;72.95;96939.13;4902907;29;20525;-80
2022/08/30 04:24:46;;;;;;;9.85;6.82;;;;;;;17.66;71.47;96935.81;4903936;29;20056;-80
2022/08/30 04:27:18;;;;;;;10.10;7.80;;;;;;;17.58;71.13;96941.38;4903212;29;20048;-80
2022/08/30 04:29:48;;;;;;;7.80;6.78;;;;;;;17.53;70.23;96933.31;4902925;29;20052;-81
2022/08/30 04:32:16;;;;;;;8.27;7.10;;;;;;;17.52;72.94;96931.69;4903035;29;20052;-81
2022/08/30 04:34:45;;;;;;;8.95;6.60;;;;;;;17.50;70.13;96942.47;4902476;29;20534;-82
2022/08/30 04:37:18;;;;;;;7.15;5.72;;;;;;;17.46;68.94;96938.63;4901972;29;20214;-83
2022/08/30 04:39:47;;;;;;;7.90;5.13;;;;;;;17.44;68.99;96939.88;4901784;29;20396;-83
2022/08/30 04:42:15;;;;;;;8.75;5.18;;;;;;;17.40;68.44;96933.44;4901617;29;20052;-83
2022/08/30 04:44:44;;;;;;;8.68;5.15;;;;;;;17.41;68.30;96935.06;4901870;29;20052;-82
2022/08/30 04:47:12;;;;;;;5.45;4.95;;;;;;;17.39;67.93;96939.72;4901319;29;20063;-82
2022/08/30 04:49:41;;;;;;;10.60;5.88;;;;;;;17.37;68.35;96947.84;4901646;29;20471;-83
2022/08/30 04:52:09;;;;;;;6.72;5.63;;;;;;;17.46;73.14;96945.75;4901168;29;20053;-83
2022/08/30 04:54:39;;;;;;;7.32;6.63;;;;;;;17.59;78.07;96956.19;4901166;29;20064;-83
2022/08/30 04:57:08;;;;;;;11.63;6.07;;;;;;;17.59;71.14;96960.66;4901232;29;20060;-82
2022/08/30 04:59:38;;;;;;;7.38;5.45;;;;;;;17.55;69.90;96960.25;4901467;29;20068;-83
2022/08/30 05:02:06;;;;;;;8.85;5.65;;;;;;;17.54;69.10;96961.31;4900095;29;20507;-83
2022/08/30 05:05:38;;;;;;;9.73;6.15;;;;;;;17.52;69.00;96960.72;4901211;29;20053;-83
2022/08/30 05:07:26;;;;;;;7.75;5.85;;;;;;;17.53;68.96;96966.78;4901165;29;20060;-83
2022/08/30 05:09:56;;;;;;;8.85;6.63;;;;;;;17.53;68.70;96977.34;4901508;29;20059;-83
2022/08/30 05:12:24;;;;;;;9.63;7.05;;;;;;;17.53;68.86;96977.34;4901290;29;20491;-83
2022/08/30 05:14:53;;;;;;;13.30;9.55;;;;;;;17.52;68.65;96984.44;4901308;29;20056;-83
2022/08/30 05:17:21;;;;;;;12.93;7.75;;;;;;;17.55;68.69;96981.38;4900962;29;20049;-83
2022/08/30 05:19:50;;;;;;;8.85;7.50;;;;;;;17.61;71.93;96980.50;4900640;29;20052;-83
2022/08/30 05:22:18;;;;;;;10.80;7.05;;;;;;;17.60;68.73;96978.06;4900981;29;20057;-82
2022/08/30 05:24:46;;;;;;;8.50;6.15;;;;;;;17.57;68.04;96989.88;4900740;29;20056;-83
2022/08/30 05:27:16;;;;;;;7.05;6.00;;;;;;;17.53;67.79;96993.97;4900881;29;20468;-83
2022/08/30 05:29:47;;;;;;;11.65;7.53;;;;;;;17.51;67.42;96985.47;4901032;29;20056;-82
2022/08/30 05:32:16;;;;;;;8.68;7.78;;;;;;;17.50;67.29;96994.41;4900751;29;20057;-83
2022/08/30 05:34:45;;;;;;;10.07;8.27;;;;;;;17.47;67.27;96995.66;4900480;29;20397;-83
2022/08/30 05:37:13;;;;;;;9.05;7.75;;;;;;;17.50;67.91;96989.13;4900473;29;20104;-82
2022/08/30 05:39:43;;;;;;;12.30;7.85;;;;;;;17.53;67.73;96993.97;4900335;29;20057;-82
2022/08/30 05:42:19;;;;;;;11.57;7.75;;;;;;;17.52;67.53;96987.09;4900751;29;20052;-83
2022/08/30 05:44:52;;;;;;;10.10;7.35;;;;;;;17.54;67.72;96984.25;4900974;29;20045;-83
2022/08/30 05:47:21;;;;;;;11.73;7.82;;;;;;;17.55;67.54;96991.91;4900565;29;20053;-82
2022/08/30 05:49:50;;;;;;;10.82;7.25;;;;;;;17.55;67.36;96981.38;4900191;29;20049;-83
2022/08/30 05:52:18;;;;;;;8.32;7.43;;;;;;;17.61;72.63;96988.41;4900567;29;20056;-80
2022/08/30 05:54:53;;;;;;;10.18;7.72;;;;;;;17.70;72.11;96989.75;4908590;29;20115;-80
2022/08/30 05:57:23;;;;;;;14.48;8.57;;;;;;;17.82;77.16;97002.25;4922062;29;20136;-83
2022/08/30 05:59:51;;;;;;;10.82;8.07;;;;;;;17.89;76.37;96998.53;4920122;29;20064;-83
2022/08/30 06:02:19;;;;;;;11.90;8.00;;;;;;;17.90;74.62;96999.34;4901120;29;20044;-82
2022/08/30 06:04:48;;;;;;;9.68;8.68;;;;;;;17.97;77.50;96994.78;4900490;29;20139;-83
2022/08/30 06:07:16;;;;;;;12.45;9.68;;;;;;;18.05;79.46;97005.06;4900432;29;20492;-80
2022/08/30 06:09:49;;;;;;;13.85;10.35;;;;;;;18.10;80.72;96999.97;4901633;29;20060;-80
2022/08/30 06:12:18;;;;;;;13.50;9.15;;;;;;;18.16;80.60;97000.09;4901212;29;20057;-80
2022/08/30 06:14:51;;;;;;;12.38;9.85;;;;;;;18.21;81.53;96994.97;4901635;29;20139;-81
2022/08/30 06:17:20;;;;;;;13.68;10.30;;;;;;;18.25;82.57;97001.41;4901767;29;20063;-80
2022/08/30 06:19:49;;;;;;;15.68;10.13;;;;;;;18.30;83.74;96999.75;4901999;29;20503;-80
2022/08/30 06:22:18;;;;;;;13.98;9.50;;;;;;;18.34;81.16;96994.81;4901908;29;20511;-80
2022/08/30 06:24:47;;;;;;;10.65;8.77;;;;;;;18.32;76.94;96994.22;4916299;29;20104;-81
2022/08/30 06:27:25;;;;;;;9.98;8.90;;;;;;;18.37;79.66;96993.56;4923474;29;20040;-80
2022/08/30 06:29:55;;;;;;;13.02;10.85;;;;;;;18.47;81.72;96992.00;4914563;29;20062;-81
2022/08/30 06:32:24;;;;;;;9.32;8.02;;;;;;;18.56;80.51;96994.34;4903247;29;20068;-80
2022/08/30 06:34:56;;;;;;;13.50;9.55;;;;;;;18.64;80.44;96989.56;4901504;29;20431;-81
2022/08/30 06:37:24;;;;;;;10.73;9.20;;;;;;;18.69;77.99;96979.13;4901684;29;20100;-81
2022/08/30 06:39:57;;;;;;;9.57;8.52;;;;;;;18.81;79.93;96984.50;4919606;29;20075;-81
2022/08/30 06:42:30;;;;;;;11.50;8.48;;;;;;;18.92;80.75;96985.56;4919550;29;20050;-81
2022/08/30 06:45:02;;;;;;;10.73;8.90;;;;;;;19.04;81.95;96982.94;4901920;29;20072;-80
2022/08/30 06:47:39;;;;;;;10.77;8.75;;;;;;;19.11;81.18;96994.22;4901972;29;20068;-80
2022/08/30 06:50:14;;;;;;;13.13;9.30;;;;;;;19.18;80.40;96989.66;4901465;29;20053;-81
2022/08/30 06:52:44;;;;;;;11.20;8.10;;;;;;;19.26;77.56;96991.97;4900475;29;20052;-80
2022/08/30 06:55:16;;;;;;;11.52;8.98;;;;;;;19.37;78.52;97000.94;4901187;29;20068;-80
2022/08/30 06:57:45;;;;;;;9.93;6.78;;;;;;;19.42;72.35;96989.69;4901477;29;20067;-81
2022/08/30 07:00:20;;;;;;;14.50;8.00;;;;;;;19.53;73.97;96995.00;4901475;29;20048;-80
2022/08/30 07:02:49;;;;;;;11.13;7.90;;;;;;;19.71;76.52;96995.94;4901408;29;20147;-81
2022/08/30 07:05:20;;;;;;;11.13;8.48;;;;;;;19.85;77.60;96993.88;4901771;29;20056;-80
2022/08/30 07:07:49;;;;;;;13.15;8.50;;;;;;;19.95;76.42;96991.44;4902905;29;20052;-81
2022/08/30 07:10:18;;;;;;;10.40;8.50;;;;;;;20.07;76.92;96986.97;4903035;29;20052;-81
2022/08/30 07:12:48;;;;;;;10.23;8.13;;;;;;;20.17;74.20;96989.81;4902531;29;20131;-81
2022/08/30 07:15:21;;;;;;;9.52;7.57;;;;;;;20.31;75.21;96987.72;4902230;29;20091;-80
2022/08/30 07:20:38;;;;;;;12.82;7.47;;;;;;;20.61;70.58;96981.41;4903205;29;20080;-80
2022/08/30 07:23:08;;;;;;;10.20;7.10;;;;;;;20.77;72.98;96978.03;4902788;29;20075;-81
2022/08/30 07:25:38;;;;;;;12.15;6.45;;;;;;;20.92;67.70;96982.78;4903445;29;20136;-80
2022/08/30 07:28:10;;;;;;;7.93;6.13;;;;;;;21.11;66.75;96979.94;4903850;29;20063;-81
2022/08/30 07:30:46;;;;;;;7.45;6.10;;;;;;;21.30;66.05;96978.66;4905233;29;20085;-81
2022/08/30 07:33:16;;;;;;;8.15;6.97;;;;;;;21.50;67.24;96980.84;4906111;29;20087;-81
2022/08/30 07:35:48;;;;;;;6.80;6.10;;;;;;;21.66;63.74;96976.56;4907157;29;20060;-81
2022/08/30 07:38:24;;;;;;;9.13;7.50;;;;;;;21.88;64.35;96983.78;4892676;29;20118;-80
2022/08/30 07:41:00;;;;;;;8.90;6.90;;;;;;;22.05;61.69;96976.59;4910024;29;20124;-80
2022/08/30 08:00:42;;;;;;;;;;;;;;;23.88;59.45;96988.50;4871082;23;20053;-79
2022/08/30 08:03:10;;;;;;;5.53;4.13;;;;;;;24.19;54.05;96989.50;4902490;29;19915;-78
2022/08/30 08:05:42;;;;;;;5.30;4.22;;;;;;;24.56;51.38;96989.41;4902834;29;20037;-79
2022/08/30 08:08:10;;;;;;;6.40;4.03;;;;;;;24.98;53.17;96990.28;4902659;29;20060;-79
2022/08/30 08:10:39;;;;;;;5.93;4.40;;;;;;;25.44;54.75;96993.81;4902558;29;20040;-79
2022/08/30 08:13:07;;;;;;;5.70;4.38;;;;;;;25.85;50.94;96993.78;4903139;29;20033;-79
2022/08/30 08:15:35;;;;;;;6.68;4.93;;;;;;;26.21;54.46;97001.72;4903115;29;20094;-79
2022/08/30 08:18:03;;;;;;;6.47;3.97;;;;;;;26.54;49.12;96999.47;4903200;29;20047;-79
2022/08/30 08:20:31;;;;;;;5.68;4.20;;;;;;;26.86;47.93;97003.63;4902691;29;20033;-79
2022/08/30 08:23:01;;;;;;;7.90;4.35;;;;;;;27.15;46.55;96994.88;4902874;29;20070;-79
2022/08/30 08:25:29;;;;;;;6.32;3.78;;;;;;;27.47;46.75;96995.19;4902902;29;20033;-79
2022/08/30 08:27:58;;;;;;;4.72;4.15;;;;;;;27.82;45.45;96998.63;4902897;29;20044;-79
2022/08/30 08:30:25;;;;;;;6.80;4.18;;;;;;;28.12;44.16;97002.09;4902426;29;20037;-80
2022/08/30 08:32:53;;;;;;;4.88;4.38;;;;;;;28.38;43.95;97001.78;4902354;29;20071;-80
2022/08/30 08:35:20;;;;;;;6.30;4.47;;;;;;;28.61;42.64;97001.00;4899094;29;20063;-80
2022/08/30 08:37:48;;;;;;;5.32;4.03;;;;;;;28.88;42.90;96994.19;4897698;29;20049;-80
2022/08/30 08:40:19;;;;;;;5.18;4.03;;;;;;;29.21;45.50;97002.34;4890922;29;20045;-80
2022/08/30 08:43:02;;;;;;;5.75;4.03;;;;;;;29.48;40.86;97007.81;4885864;29;20049;-81
2022/08/30 08:45:43;;;;;;;4.55;4.13;;;;;;;29.69;39.37;97002.13;4886071;29;20436;-80
2022/08/30 08:48:23;;;;;;;5.40;3.83;;;;;;;29.88;38.90;97000.16;4882214;29;20073;-80
2022/08/30 08:53:47;;;;;;;4.07;3.72;;;;;;;30.44;38.33;97000.19;4882412;29;20099;-81
2022/08/30 08:56:20;;;;;;;3.45;3.15;;;;;;;30.59;38.82;97002.56;4882415;29;20076;-81
2022/08/30 08:58:48;;;;;;;;;;;;;;;30.78;40.70;97008.63;4882676;29;20080;-80
2022/08/30 09:01:17;;;;;;;7.32;4.07;;;;;;;30.90;36.92;97001.97;4882637;29;19971;-81
2022/08/30 09:03:46;;;;;;;5.32;3.70;;;;;;;30.97;36.52;97002.34;4883055;29;20519;-81
2022/08/30 09:06:27;;;;;;;4.15;3.70;;;;;;;31.02;35.37;96999.53;4882822;29;20488;-81
2022/08/30 09:08:55;;;;;;;5.55;3.75;;;;;;;30.98;34.65;97001.22;4882936;29;20057;-81
2022/08/30 09:11:27;;;;;;;6.07;3.95;;;;;;;30.85;35.09;96999.34;4882232;29;20436;-79
2022/08/30 09:13:55;;;;;;;4.35;4.03;;;;;;;30.87;35.20;96992.56;4883039;29;20149;-79
2022/08/30 09:16:46;;;;;;;4.70;3.53;;;;;;;31.04;36.12;96991.94;4882526;29;20087;-80
2022/08/30 09:19:29;;;;;;;4.68;3.80;;;;;;;31.24;37.48;96985.25;4882896;29;20143;-81
2022/08/30 09:22:04;;;;;;;3.95;3.65;;;;;;;31.38;36.03;96980.63;4882228;29;20192;-82
2022/08/30 09:24:41;;;;;;;4.43;3.15;;;;;;;31.42;34.93;96978.13;4883322;29;20155;-81
2022/08/30 09:27:23;;;;;;;4.43;3.47;;;;;;;31.33;34.02;96967.25;4882916;29;20073;-80
2022/08/30 09:29:53;;;;;;;6.97;4.45;;;;;;;31.26;33.35;96976.88;4882659;29;20092;-80
2022/08/30 09:32:26;;;;;;;4.22;3.83;;;;;;;31.18;34.12;96968.44;4882282;29;20081;-81
2022/08/30 09:34:54;;;;;;;4.10;3.70;;;;;;;31.20;34.13;96973.50;4882784;29;20053;-80
2022/08/30 09:37:25;;;;;;;4.60;4.00;;;;;;;31.24;33.41;96973.69;4883094;29;20137;-80
2022/08/30 09:39:53;;;;;;;4.25;3.85;;;;;;;31.26;33.58;96968.81;4882393;29;20077;-80
2022/08/30 09:42:25;;;;;;;3.88;3.58;;;;;;;31.27;33.15;96960.41;4882441;29;20053;-80
2022/08/30 09:45:09;;;;;;;6.30;4.28;;;;;;;31.26;33.33;96961.50;4882578;29;20069;-80
2022/08/30 09:47:38;;;;;;;4.43;4.03;;;;;;;31.17;33.71;96964.13;4881851;29;20049;-81
2022/08/30 09:50:12;;;;;;;5.57;4.15;;;;;;;31.15;33.19;96960.94;4881570;29;20064;-80
2022/08/30 09:52:52;;;;;;;3.92;3.63;;;;;;;31.19;33.13;96956.53;4882886;29;20053;-80
2022/08/30 09:55:53;;;;;;;3.50;3.20;;;;;;;31.16;33.20;96957.16;4882077;29;20053;-79
2022/08/30 09:58:37;;;;;;;4.07;3.35;;;;;;;31.16;33.53;96957.16;4882308;29;20053;-80
2022/08/30 10:01:12;;;;;;;4.45;3.15;;;;;;;31.25;33.78;96954.53;4882037;29;20088;-80
2022/08/30 10:03:48;;;;;;;3.83;3.42;;;;;;;31.31;35.66;96945.22;4882732;29;20087;-80
2022/08/30 10:06:28;;;;;;;6.75;3.78;;;;;;;31.42;33.96;96943.06;4882782;29;20140;-80
2022/08/30 10:09:05;;;;;;;4.00;3.60;;;;;;;31.47;32.59;96950.25;4883018;29;20112;-79
2022/08/30 10:11:42;;;;;;;4.85;3.55;;;;;;;31.51;32.75;96940.44;4882597;29;20053;-80
2022/08/30 10:14:47;;;;;;;4.05;3.40;;;;;;;31.45;32.77;96928.19;4882485;29;20049;-81
2022/08/30 10:17:27;;;;;;;3.60;3.30;;;;;;;31.44;32.96;96929.28;4882679;29;20062;-80
2022/08/30 10:20:11;;;;;;;3.67;3.38;;;;;;;31.50;32.83;96934.25;4883622;29;20091;-80
2022/08/30 10:22:45;;;;;;;3.75;3.45;;;;;;;31.48;31.67;96922.19;4883728;29;20053;-80
2022/08/30 10:25:17;;;;;;;4.82;3.65;;;;;;;31.43;31.98;96923.13;4883212;29;20080;-80
2022/08/30 10:27:48;;;;;;;;;;;;;;;31.52;33.85;96926.66;4883695;29;20091;-80
2022/08/30 10:30:18;;;;;;;4.40;3.00;;;;;;;31.58;33.04;96919.22;4883193;29;19924;-80
2022/08/30 10:32:51;;;;;;;3.90;3.28;;;;;;;31.63;31.92;96921.78;4882515;29;20053;-80
2022/08/30 10:35:21;;;;;;;3.95;3.33;;;;;;;31.64;32.71;96912.59;4882758;29;20064;-80
2022/08/30 10:37:53;;;;;;;3.83;3.42;;;;;;;31.67;36.31;96911.97;4882899;29;20489;-81
2022/08/30 10:43:22;;;;;;;3.40;3.15;;;;;;;31.70;31.51;96910.53;4882321;29;20045;-80
2022/08/30 10:45:56;;;;;;;3.50;2.88;;;;;;;31.68;31.32;96901.97;4881971;29;20095;-80
2022/08/30 10:48:28;;;;;;;3.58;3.28;;;;;;;31.68;31.16;96901.97;4881837;29;20488;-80
2022/08/30 10:51:03;;;;;;;4.75;2.85;;;;;;;31.73;33.40;96901.84;4881212;29;20053;-81
2022/08/30 10:53:36;;;;;;;5.20;3.50;;;;;;;31.72;32.50;96897.53;4881419;29;20084;-80
2022/08/30 10:56:10;;;;;;;3.08;2.78;;;;;;;31.59;31.66;96899.25;4881715;29;20084;-80
2022/08/30 10:58:41;;;;;;;4.65;3.10;;;;;;;31.36;32.08;96895.78;4880484;29;20059;-81
2022/08/30 11:01:22;;;;;;;3.13;2.58;;;;;;;31.13;33.01;96901.19;4881573;29;20143;-81
2022/08/30 11:04:34;;;;;;;3.85;3.55;;;;;;;30.94;33.65;96896.00;4881600;29;20111;-80
2022/08/30 11:07:12;;;;;;;4.30;3.70;;;;;;;30.77;33.66;96891.25;4881109;29;20137;-80
2022/08/30 11:09:53;;;;;;;4.50;3.28;;;;;;;30.53;34.60;96888.06;4880274;29;20057;-80
2022/08/30 11:12:32;;;;;;;3.90;3.47;;;;;;;30.36;34.60;96891.38;4879980;29;20064;-81
2022/08/30 11:15:11;;;;;;;5.13;3.65;;;;;;;30.20;35.14;96896.28;4879937;29;20121;-79
2022/08/30 11:17:46;;;;;;;3.25;3.03;;;;;;;30.04;34.47;96905.75;4879909;29;20309;-80
2022/08/30 11:20:33;;;;;;;3.75;3.45;;;;;;;29.87;35.46;96900.94;4879251;29;20080;-80
2022/08/30 11:23:26;;;;;;;4.25;3.33;;;;;;;29.76;35.49;96911.13;4879308;29;20144;-80
2022/08/30 11:26:01;;;;;;;3.92;3.40;;;;;;;29.68;35.69;96909.09;4879564;29;20057;-80
2022/08/30 11:29:06;;;;;;;4.75;3.65;;;;;;;29.66;36.20;96911.28;4879003;29;20068;-80
2022/08/30 11:31:43;;;;;;;5.88;3.40;;;;;;;29.68;35.49;96909.09;4878647;29;20504;-82
2022/08/30 11:34:55;;;;;;;5.30;3.85;;;;;;;29.68;35.95;96911.78;4879158;29;20101;-81
2022/08/30 11:37:34;;;;;;;7.78;4.07;;;;;;;29.54;35.80;96906.38;4878604;29;20128;-80
2022/08/30 11:40:06;;;;;;;5.65;3.05;;;;;;;29.46;35.70;96899.81;4878297;29;20070;-80
2022/08/30 11:42:45;;;;;;;;;;;;;;;29.48;36.44;96904.91;4887574;29;20057;-80
2022/08/30 11:45:44;;;;;;;5.70;3.65;;;;;;;29.39;35.36;96912.84;4881775;29;19923;-83
2022/08/30 11:48:50;;;;;;;4.78;3.88;;;;;;;29.28;35.72;96901.47;4881679;29;20087;-82
2022/08/30 11:51:45;;;;;;;5.72;3.83;;;;;;;29.32;36.06;96898.97;4879994;29;20053;-82
2022/08/30 11:54:42;;;;;;;4.53;3.65;;;;;;;29.32;35.59;96891.75;4880250;29;20443;-80
2022/08/30 11:57:17;;;;;;;4.95;3.00;;;;;;;29.34;36.00;96889.56;4880039;29;20060;-82
2022/08/30 11:59:55;;;;;;;4.18;3.85;;;;;;;29.33;35.64;96887.16;4879920;29;20507;-80
2022/08/30 12:02:45;;;;;;;6.50;3.50;;;;;;;29.27;36.10;96888.34;4879443;29;20128;-80
2022/08/30 12:05:48;;;;;;;4.70;3.42;;;;;;;29.20;36.15;96888.72;4880180;29;20140;-80
2022/08/30 12:08:42;;;;;;;4.50;3.17;;;;;;;29.30;36.16;96877.81;4879155;29;20093;-82
2022/08/30 12:11:44;;;;;;;3.83;3.53;;;;;;;29.45;38.75;96875.91;4882003;29;20526;-82
2022/08/30 12:14:34;;;;;;;4.97;4.03;;;;;;;29.55;37.77;96879.22;4883491;29;20113;-81
2022/08/30 12:19:58;;;;;;;4.88;3.60;;;;;;;29.59;35.35;96874.06;4883412;29;20080;-80
2022/08/30 12:22:29;;;;;;;4.35;3.60;;;;;;;29.59;35.52;96874.06;4883374;29;20049;-81
2022/08/30 12:24:58;;;;;;;4.13;3.50;;;;;;;29.63;35.82;96868.84;4882813;29;20428;-80
2022/08/30 12:27:28;;;;;;;3.33;3.00;;;;;;;29.69;34.67;96867.69;4883527;29;20061;-81
2022/08/30 12:30:01;;;;;;;3.58;3.22;;;;;;;29.78;35.70;96866.72;4883225;29;20544;-81
2022/08/30 12:32:30;;;;;;;3.60;3.30;;;;;;;29.86;36.30;96859.81;4883601;29;20112;-81
2022/08/30 12:35:01;;;;;;;3.47;3.17;;;;;;;29.90;35.41;96860.81;4883799;29;20461;-82